Time;durP1;ratioP1;P1;durP2;ratioP2;P2;SDS_P1;SDS_P2;PMS_P1;PMS_P2;Temp;Humidity;BMP_temperature;BMP_pressure;BME280_temperature;BME280_humidity;BME280_pressure;Samples;Min_cycle;Max_cycle;Signal;HPM_P1;HPM_P2
2021/12/20 00:01:56;;;;;;;18.30;7.70;;;3.80;99.90;;;;;;5075391;28;20075;-83
2021/12/20 00:04:21;;;;;;;15.77;7.53;;;3.80;99.90;;;;;;5076176;28;20035;-83
2021/12/20 00:06:47;;;;;;;16.53;7.20;;;3.80;99.90;;;;;;5090572;28;20024;-83
2021/12/20 00:09:13;;;;;;;20.50;7.83;;;3.70;99.90;;;;;;5096344;28;20023;-82
2021/12/20 00:11:38;;;;;;;18.23;7.37;;;3.80;99.90;;;;;;5095745;28;20027;-82
2021/12/20 00:14:04;;;;;;;15.60;7.40;;;3.80;99.90;;;;;;5094710;28;20058;-82
2021/12/20 00:16:30;;;;;;;18.83;7.00;;;3.70;99.90;;;;;;5094675;28;20429;-84
2021/12/20 00:18:56;;;;;;;17.07;7.33;;;3.70;99.90;;;;;;5113620;28;20106;-84
2021/12/20 00:21:21;;;;;;;18.23;7.73;;;3.70;99.90;;;;;;5095960;28;20204;-84
2021/12/20 00:23:47;;;;;;;19.27;7.90;;;3.70;99.90;;;;;;5095492;28;20372;-85
2021/12/20 00:26:13;;;;;;;17.50;7.60;;;3.80;99.90;;;;;;5114298;28;20028;-84
2021/12/20 00:28:39;;;;;;;18.60;8.13;;;3.80;99.90;;;;;;5113688;28;20044;-84
2021/12/20 00:31:05;;;;;;;20.60;7.43;;;3.70;99.90;;;;;;5095970;28;20028;-84
2021/12/20 00:33:33;;;;;;;20.23;8.27;;;3.80;99.90;;;;;;5085975;28;20542;-83
2021/12/20 00:36:06;;;;;;;17.03;7.73;;;3.80;99.90;;;;;;5075403;28;20054;-84
2021/12/20 00:41:17;;;;;;;17.23;7.50;;;3.80;99.90;;;;;;5093446;28;20075;-84
2021/12/20 00:43:42;;;;;;;16.13;7.43;;;3.70;99.90;;;;;;5093238;28;20055;-84
2021/12/20 00:46:08;;;;;;;18.80;8.63;;;3.70;99.90;;;;;;5075793;28;20521;-83
2021/12/20 00:48:34;;;;;;;18.10;7.57;;;3.80;99.90;;;;;;5093911;28;20020;-84
2021/12/20 00:51:00;;;;;;;22.80;8.60;;;3.70;99.90;;;;;;5075341;28;20075;-84
2021/12/20 00:53:26;;;;;;;20.23;8.40;;;3.70;99.90;;;;;;5093722;28;20077;-84
2021/12/20 00:55:51;;;;;;;18.93;8.30;;;3.70;99.90;;;;;;5093373;28;20024;-84
2021/12/20 00:58:17;;;;;;;19.43;7.77;;;3.70;99.90;;;;;;5075703;28;20024;-84
2021/12/20 01:00:47;;;;;;;19.97;8.47;;;3.70;99.90;;;;;;5075549;28;20043;-82
2021/12/20 01:03:15;;;;;;;20.70;8.40;;;3.80;99.90;;;;;;5075731;28;20035;-83
2021/12/20 01:05:41;;;;;;;18.97;7.93;;;3.70;99.90;;;;;;5081781;28;20072;-83
2021/12/20 01:08:08;;;;;;;21.23;8.10;;;3.70;99.90;;;;;;5113733;28;20457;-83
2021/12/20 01:10:37;;;;;;;19.63;8.77;;;3.60;99.90;;;;;;5096093;28;20444;-83
2021/12/20 01:13:04;;;;;;;21.03;9.07;;;3.60;99.90;;;;;;5095210;28;20180;-83
2021/12/20 01:15:44;;;;;;;22.30;9.30;;;3.60;99.90;;;;;;5096179;28;20020;-83
2021/12/20 01:18:10;;;;;;;21.33;8.83;;;3.60;99.90;;;;;;5113942;28;20464;-81
2021/12/20 01:20:36;;;;;;;24.37;9.50;;;3.60;99.90;;;;;;5094987;28;20189;-83
2021/12/20 01:23:03;;;;;;;21.70;8.27;;;3.60;99.90;;;;;;5095306;28;20035;-83
2021/12/20 01:25:29;;;;;;;20.30;8.07;;;3.70;99.90;;;;;;5096008;28;20464;-82
2021/12/20 01:27:54;;;;;;;19.53;8.77;;;3.60;99.90;;;;;;5095140;28;20114;-82
2021/12/20 01:30:23;;;;;;;22.53;8.77;;;3.70;99.90;;;;;;5099563;28;20047;-82
2021/12/20 01:32:49;;;;;;;23.73;9.37;;;3.70;99.90;;;;;;5094919;28;20032;-83
2021/12/20 01:35:17;;;;;;;22.83;9.23;;;3.70;99.90;;;;;;5096873;28;20051;-83
2021/12/20 01:37:42;;;;;;;25.60;9.77;;;3.60;99.90;;;;;;5078868;28;20055;-83
2021/12/20 01:40:11;;;;;;;22.47;9.03;;;3.60;99.90;;;;;;5096487;28;20028;-82
2021/12/20 01:42:37;;;;;;;25.57;9.63;;;3.60;99.90;;;;;;5078467;28;20032;-83
2021/12/20 01:45:06;;;;;;;25.43;9.73;;;3.60;99.90;;;;;;5078122;28;20121;-81
2021/12/20 01:47:36;;;;;;;28.57;9.73;;;3.60;99.90;;;;;;5079125;28;20441;-82
2021/12/20 01:50:11;;;;;;;28.33;11.13;;;3.60;99.90;;;;;;5078277;28;20027;-83
2021/12/20 01:52:43;;;;;;;22.80;10.03;;;3.60;99.90;;;;;;5078815;28;20092;-83
2021/12/20 01:55:09;;;;;;;;;;;3.60;99.90;;;;;;5078801;28;20028;-83
2021/12/20 01:57:35;;;;;;;22.73;9.27;;;3.60;99.90;;;;;;5078574;28;19904;-82
2021/12/20 02:00:06;;;;;;;24.97;10.13;;;3.50;99.90;;;;;;5078163;28;20087;-83
2021/12/20 02:02:32;;;;;;;28.53;10.13;;;3.50;99.90;;;;;;5098142;28;20039;-83
2021/12/20 02:05:06;;;;;;;27.00;10.47;;;3.50;99.90;;;;;;5098024;28;20031;-83
2021/12/20 02:07:49;;;;;;;26.87;10.97;;;3.50;99.90;;;;;;5099208;28;20019;-83
2021/12/20 02:10:15;;;;;;;26.83;10.67;;;3.60;99.90;;;;;;5098787;28;20055;-82
2021/12/20 02:12:41;;;;;;;30.37;12.17;;;3.60;99.90;;;;;;5098270;28;20120;-83
2021/12/20 02:15:07;;;;;;;26.40;9.90;;;3.60;99.90;;;;;;5098306;28;20376;-83
2021/12/20 02:17:33;;;;;;;24.60;10.07;;;3.60;99.90;;;;;;5098734;28;20444;-83
2021/12/20 02:20:00;;;;;;;28.87;10.20;;;3.60;99.90;;;;;;5102452;28;20104;-82
2021/12/20 02:22:26;;;;;;;29.70;10.67;;;3.60;99.90;;;;;;5078584;28;20031;-82
2021/12/20 02:24:51;;;;;;;28.73;10.83;;;3.60;99.90;;;;;;5077746;28;20544;-83
2021/12/20 02:27:17;;;;;;;27.30;10.77;;;3.60;99.90;;;;;;5077875;28;20061;-82
2021/12/20 02:30:12;;;;;;;24.87;10.33;;;3.60;99.90;;;;;;5078139;28;20526;-82
2021/12/20 02:38:20;;;;;;;29.55;10.80;;;3.60;99.90;;;;;;5072172;28;20114;-82
2021/12/20 02:40:46;;;;;;;32.37;11.07;;;3.60;99.90;;;;;;5095339;28;20071;-82
2021/12/20 02:43:16;;;;;;;28.57;10.60;;;3.60;99.90;;;;;;5077555;28;20030;-82
2021/12/20 02:45:43;;;;;;;27.60;10.77;;;3.60;99.90;;;;;;5078160;28;20028;-82
2021/12/20 02:48:08;;;;;;;28.40;10.20;;;3.60;99.90;;;;;;5094976;28;20028;-83
2021/12/20 02:50:34;;;;;;;27.83;9.57;;;3.50;99.90;;;;;;5077472;28;20550;-81
2021/12/20 02:53:00;;;;;;;25.90;9.53;;;3.60;99.90;;;;;;5094928;28;20073;-82
2021/12/20 02:55:25;;;;;;;29.67;10.27;;;3.60;99.90;;;;;;5077092;28;20029;-83
2021/12/20 02:57:51;;;;;;;27.47;9.90;;;3.60;99.90;;;;;;5094962;28;20059;-84
2021/12/20 03:00:17;;;;;;;28.97;10.40;;;3.60;99.90;;;;;;5077579;28;20025;-83
2021/12/20 03:02:42;;;;;;;26.17;10.07;;;3.60;99.90;;;;;;5076924;28;20072;-83
2021/12/20 03:05:10;;;;;;;27.33;9.83;;;3.60;99.90;;;;;;5078839;28;20032;-82
2021/12/20 03:07:45;;;;;;;29.10;10.30;;;3.60;99.90;;;;;;5115692;28;20027;-83
2021/12/20 03:10:11;;;;;;;25.07;9.33;;;3.70;99.90;;;;;;5097122;28;20477;-83
2021/12/20 03:12:37;;;;;;;27.50;10.07;;;3.70;99.90;;;;;;5097275;28;20035;-82
2021/12/20 03:15:11;;;;;;;25.00;10.07;;;3.60;99.90;;;;;;5097432;28;20030;-83
2021/12/20 03:17:36;;;;;;;31.27;10.40;;;3.60;99.90;;;;;;5115124;28;20460;-82
2021/12/20 03:20:03;;;;;;;27.43;10.80;;;3.60;99.90;;;;;;5096677;28;20027;-83
2021/12/20 03:22:29;;;;;;;28.23;10.07;;;3.60;99.90;;;;;;5097296;28;20106;-82
2021/12/20 03:24:54;;;;;;;26.50;10.30;;;3.60;99.90;;;;;;5096513;28;20055;-83
2021/12/20 03:27:20;;;;;;;30.23;10.40;;;3.60;99.90;;;;;;5097303;28;20030;-83
2021/12/20 03:29:46;;;;;;;24.27;10.10;;;3.60;99.90;;;;;;5097448;28;20054;-82
2021/12/20 03:32:12;;;;;;;29.77;10.33;;;3.50;99.90;;;;;;5096506;28;20223;-84
2021/12/20 03:34:38;;;;;;;29.93;10.07;;;3.50;99.90;;;;;;5096922;28;20047;-83
2021/12/20 03:37:03;;;;;;;31.70;11.27;;;3.50;99.90;;;;;;5096650;28;20044;-82
2021/12/20 03:39:30;;;;;;;33.17;10.57;;;3.50;99.90;;;;;;5097014;28;20387;-81
2021/12/20 03:41:55;;;;;;;28.93;10.17;;;3.50;99.90;;;;;;5113906;28;20038;-83
2021/12/20 03:44:21;;;;;;;26.13;9.80;;;3.50;99.90;;;;;;5097070;28;20031;-83
2021/12/20 03:46:47;;;;;;;28.13;10.80;;;3.50;99.90;;;;;;5096813;28;20024;-83
2021/12/20 03:49:13;;;;;;;32.43;10.63;;;3.50;99.90;;;;;;5096244;28;20499;-83
2021/12/20 03:51:38;;;;;;;29.77;10.70;;;3.50;99.90;;;;;;5096400;28;20032;-83
2021/12/20 03:54:05;;;;;;;28.90;10.20;;;3.50;99.90;;;;;;5096429;28;20122;-81
2021/12/20 03:56:31;;;;;;;29.53;11.47;;;3.50;99.90;;;;;;5114491;28;20098;-82
2021/12/20 03:58:56;;;;;;;29.43;10.77;;;3.50;99.90;;;;;;5096277;28;20020;-83
2021/12/20 04:01:22;;;;;;;29.97;11.37;;;3.40;99.90;;;;;;5114526;28;20058;-83
2021/12/20 04:03:50;;;;;;;29.50;10.50;;;3.40;99.90;;;;;;5084424;28;20032;-80
2021/12/20 04:06:16;;;;;;;28.77;10.00;;;3.40;99.90;;;;;;5077974;28;20083;-83
2021/12/20 04:08:42;;;;;;;28.97;11.23;;;3.50;99.90;;;;;;5094309;28;20124;-82
2021/12/20 04:11:09;;;;;;;26.27;9.70;;;3.50;99.90;;;;;;5093264;28;20480;-83
2021/12/20 04:13:34;;;;;;;30.37;11.03;;;3.50;99.90;;;;;;5076207;28;20095;-82
2021/12/20 04:16:01;;;;;;;32.30;10.87;;;3.50;99.90;;;;;;5075493;28;20088;-83
2021/12/20 04:18:27;;;;;;;34.13;11.57;;;3.50;99.90;;;;;;5076138;28;20048;-82
2021/12/20 04:20:53;;;;;;;31.07;11.07;;;3.50;99.90;;;;;;5076021;28;20055;-82
2021/12/20 04:23:19;;;;;;;32.33;11.00;;;3.50;99.90;;;;;;5075775;28;20035;-82
2021/12/20 04:25:44;;;;;;;27.10;10.17;;;3.50;99.90;;;;;;5075863;28;20415;-82
2021/12/20 04:28:10;;;;;;;36.03;11.70;;;3.50;99.90;;;;;;5077709;28;20073;-82
2021/12/20 04:30:36;;;;;;;28.43;10.20;;;3.50;99.90;;;;;;5114200;28;20031;-82
2021/12/20 04:33:02;;;;;;;31.47;11.00;;;3.50;99.90;;;;;;5095125;28;20464;-82
2021/12/20 04:35:28;;;;;;;28.17;10.07;;;3.50;99.90;;;;;;5096045;28;20072;-82
2021/12/20 04:37:54;;;;;;;31.77;10.83;;;3.50;99.90;;;;;;5095744;28;20041;-84
2021/12/20 04:40:22;;;;;;;30.47;11.07;;;3.50;99.90;;;;;;5087975;28;20035;-83
2021/12/20 04:42:51;;;;;;;28.80;11.10;;;3.50;99.90;;;;;;5095427;28;20035;-82
2021/12/20 04:45:18;;;;;;;32.67;10.87;;;3.50;99.90;;;;;;5114521;28;20028;-83
2021/12/20 04:47:43;;;;;;;29.70;11.13;;;3.50;99.90;;;;;;5113625;28;20023;-83
2021/12/20 04:50:10;;;;;;;28.03;10.47;;;3.50;99.90;;;;;;5095535;28;20046;-82
2021/12/20 04:52:36;;;;;;;28.37;10.73;;;3.50;99.90;;;;;;5113269;28;20031;-83
2021/12/20 04:55:05;;;;;;;29.87;11.13;;;3.50;99.90;;;;;;5095133;28;20020;-82
2021/12/20 04:57:30;;;;;;;30.40;11.00;;;3.50;99.90;;;;;;5114226;28;20027;-83
2021/12/20 04:59:56;;;;;;;31.60;10.97;;;3.50;99.90;;;;;;5095716;28;20049;-86
2021/12/20 05:02:22;;;;;;;29.23;10.23;;;3.50;99.90;;;;;;5094983;28;20042;-83
2021/12/20 05:04:48;;;;;;;29.77;10.10;;;3.50;99.90;;;;;;5078768;28;20055;-82
2021/12/20 05:07:13;;;;;;;30.73;10.40;;;3.50;99.90;;;;;;5098438;28;20118;-83
2021/12/20 05:09:40;;;;;;;30.43;11.60;;;3.50;99.90;;;;;;5099489;28;20463;-82
2021/12/20 05:12:11;;;;;;;34.97;10.83;;;3.50;99.90;;;;;;5099051;28;20092;-83
2021/12/20 05:14:40;;;;;;;37.47;11.07;;;3.50;99.90;;;;;;5117825;28;20059;-83
2021/12/20 05:17:07;;;;;;;38.73;12.40;;;3.50;99.90;;;;;;5098702;28;20123;-83
2021/12/20 05:19:33;;;;;;;31.17;10.33;;;3.40;99.90;;;;;;5117525;28;20103;-83
2021/12/20 05:21:59;;;;;;;32.80;11.43;;;3.40;99.90;;;;;;5098270;28;20082;-84
2021/12/20 05:24:24;;;;;;;33.40;11.90;;;3.40;99.90;;;;;;5117231;28;20059;-83
2021/12/20 05:26:51;;;;;;;31.90;11.40;;;3.40;99.90;;;;;;5099272;28;20027;-82
2021/12/20 05:29:17;;;;;;;31.30;11.03;;;3.50;99.90;;;;;;5099037;28;20354;-83
2021/12/20 05:31:43;;;;;;;33.93;11.23;;;3.50;99.90;;;;;;5099315;28;20114;-83
2021/12/20 05:34:08;;;;;;;31.40;10.20;;;3.50;99.90;;;;;;5116712;28;20368;-83
2021/12/20 05:36:34;;;;;;;32.40;10.67;;;3.40;99.90;;;;;;5117651;28;20027;-82
2021/12/20 05:39:00;;;;;;;28.33;10.30;;;3.50;99.90;;;;;;5116771;28;20514;-82
2021/12/20 05:41:25;;;;;;;27.50;10.57;;;3.50;99.90;;;;;;5099395;28;20533;-82
2021/12/20 05:43:51;;;;;;;29.13;10.33;;;3.60;99.90;;;;;;5099453;28;20019;-82
2021/12/20 05:46:17;;;;;;;30.80;10.37;;;3.50;99.90;;;;;;5098534;28;20460;-82
2021/12/20 05:48:42;;;;;;;32.90;11.73;;;3.60;99.90;;;;;;5099433;28;20027;-82
2021/12/20 05:51:08;;;;;;;29.83;10.57;;;3.50;99.90;;;;;;5098792;28;20035;-82
2021/12/20 05:53:34;;;;;;;35.77;11.50;;;3.50;99.90;;;;;;5099104;28;20456;-82
2021/12/20 05:56:00;;;;;;;30.33;10.20;;;3.50;99.90;;;;;;5115802;28;20055;-83
2021/12/20 05:58:26;;;;;;;35.57;11.37;;;3.50;99.90;;;;;;5097724;28;20016;-82
2021/12/20 06:00:51;;;;;;;30.37;10.57;;;3.60;99.90;;;;;;5097507;28;20031;-82
2021/12/20 06:03:17;;;;;;;34.97;11.67;;;3.60;99.90;;;;;;5096996;28;20035;-82
2021/12/20 06:05:43;;;;;;;33.90;11.57;;;3.60;99.90;;;;;;5097410;28;20111;-83
2021/12/20 06:08:10;;;;;;;33.77;11.77;;;3.60;99.90;;;;;;5096906;28;20023;-82
2021/12/20 06:10:36;;;;;;;30.93;9.93;;;3.60;99.90;;;;;;5115845;28;20153;-83
2021/12/20 06:13:03;;;;;;;30.13;10.00;;;3.60;99.90;;;;;;5096991;28;20024;-83
2021/12/20 06:15:29;;;;;;;29.20;10.43;;;3.60;99.90;;;;;;5097209;28;20431;-83
2021/12/20 06:17:55;;;;;;;33.70;11.73;;;3.60;99.90;;;;;;5097714;28;20077;-83
2021/12/20 06:20:21;;;;;;;31.03;10.60;;;3.60;99.90;;;;;;5096900;28;20079;-83
2021/12/20 06:22:47;;;;;;;33.57;10.97;;;3.60;99.90;;;;;;5096783;28;20107;-83
2021/12/20 06:25:13;;;;;;;28.03;10.40;;;3.60;99.90;;;;;;5096966;28;20455;-83
2021/12/20 06:27:39;;;;;;;29.33;9.87;;;3.60;99.90;;;;;;5115438;28;20038;-83
2021/12/20 06:30:08;;;;;;;29.37;10.03;;;3.50;99.90;;;;;;5096779;28;20023;-83
2021/12/20 06:32:35;;;;;;;29.13;10.23;;;3.50;99.90;;;;;;5097119;28;20027;-82
2021/12/20 06:35:01;;;;;;;31.67;11.87;;;3.50;99.90;;;;;;5096434;28;20016;-83
2021/12/20 06:37:27;;;;;;;33.17;10.60;;;3.50;99.90;;;;;;5114688;28;20023;-82
2021/12/20 06:39:53;;;;;;;27.00;11.30;;;3.50;99.90;;;;;;5097248;28;20020;-83
2021/12/20 06:42:18;;;;;;;33.43;10.53;;;3.50;99.90;;;;;;5096449;28;20686;-83
2021/12/20 06:44:44;;;;;;;29.70;10.67;;;3.50;99.90;;;;;;5096641;28;20580;-82
2021/12/20 06:47:10;;;;;;;32.23;10.73;;;3.50;99.90;;;;;;5096409;28;20027;-83
2021/12/20 06:49:36;;;;;;;29.03;10.30;;;3.50;99.90;;;;;;5096639;28;20027;-82
2021/12/20 06:52:03;;;;;;;33.60;11.20;;;3.50;99.90;;;;;;5096030;28;20365;-84
2021/12/20 06:54:29;;;;;;;31.20;11.20;;;3.50;99.90;;;;;;5093897;28;20110;-82
2021/12/20 06:56:54;;;;;;;30.87;10.87;;;3.50;99.90;;;;;;5096651;28;20110;-83
2021/12/20 06:59:20;;;;;;;30.33;10.73;;;3.60;99.90;;;;;;5095988;28;20031;-83
2021/12/20 07:01:46;;;;;;;31.30;10.83;;;3.50;99.90;;;;;;5096197;28;20031;-83
2021/12/20 07:04:12;;;;;;;36.30;11.37;;;3.50;99.90;;;;;;5096178;28;20023;-82
2021/12/20 07:06:38;;;;;;;32.20;10.47;;;3.50;99.90;;;;;;5096671;28;20024;-83
2021/12/20 07:09:04;;;;;;;28.97;10.53;;;3.50;99.90;;;;;;5095866;28;20147;-83
2021/12/20 07:11:30;;;;;;;29.73;10.80;;;3.50;99.90;;;;;;5093580;28;20061;-82
2021/12/20 07:13:56;;;;;;;27.43;10.67;;;3.50;99.90;;;;;;5096476;28;20073;-83
2021/12/20 07:16:22;;;;;;;31.47;10.80;;;3.50;99.90;;;;;;5095627;28;20471;-82
2021/12/20 07:18:48;;;;;;;30.13;11.43;;;3.60;99.90;;;;;;5097088;28;20053;-82
2021/12/20 07:21:14;;;;;;;31.27;11.53;;;3.60;99.90;;;;;;5096769;28;20101;-82
2021/12/20 07:23:40;;;;;;;32.20;11.03;;;3.60;99.90;;;;;;5096679;28;20051;-82
2021/12/20 07:26:10;;;;;;;33.50;11.80;;;3.50;99.90;;;;;;5114118;28;20353;-82
2021/12/20 07:28:35;;;;;;;33.17;11.77;;;3.60;99.90;;;;;;5096767;28;20019;-82
2021/12/20 07:31:01;;;;;;;30.83;11.10;;;3.50;99.90;;;;;;5096233;28;20118;-83
2021/12/20 07:33:27;;;;;;;27.80;10.60;;;3.60;99.90;;;;;;5087574;28;20024;-82
2021/12/20 07:35:53;;;;;;;30.67;11.33;;;3.50;99.90;;;;;;5076529;28;20579;-82
2021/12/20 07:38:19;;;;;;;31.40;11.10;;;3.60;99.90;;;;;;5075770;28;20028;-83
2021/12/20 07:40:47;;;;;;;31.87;11.10;;;3.60;99.90;;;;;;5080278;28;20024;-82
2021/12/20 07:43:15;;;;;;;29.77;11.60;;;3.60;99.90;;;;;;5094928;28;20118;-83
2021/12/20 07:45:47;;;;;;;31.73;11.43;;;3.60;99.90;;;;;;5095162;28;20443;-83
2021/12/20 07:48:17;;;;;;;31.95;11.00;;;3.60;99.90;;;;;;5113078;28;20158;-82
2021/12/20 07:50:43;;;;;;;29.13;10.60;;;3.60;99.90;;;;;;5095359;28;20100;-82
2021/12/20 07:53:09;;;;;;;29.07;10.63;;;3.60;99.90;;;;;;5112908;28;20034;-82
2021/12/20 07:55:35;;;;;;;31.40;11.73;;;3.60;99.90;;;;;;5095611;28;20020;-82
2021/12/20 07:58:00;;;;;;;29.03;11.57;;;3.60;99.90;;;;;;5095020;28;20028;-84
2021/12/20 08:00:26;;;;;;;31.40;11.57;;;3.70;99.90;;;;;;5095244;28;20023;-81
2021/12/20 08:02:53;;;;;;;34.23;12.10;;;3.70;99.90;;;;;;5092569;28;20032;-82
2021/12/20 08:05:19;;;;;;;35.03;12.57;;;3.70;99.90;;;;;;5094968;28;20024;-82
2021/12/20 08:07:48;;;;;;;33.63;11.40;;;3.60;99.90;;;;;;5094765;28;20053;-82
2021/12/20 08:10:15;;;;;;;33.60;11.70;;;3.70;99.90;;;;;;5094776;28;20460;-82
2021/12/20 08:12:41;;;;;;;32.57;12.23;;;3.70;99.90;;;;;;5095098;28;20032;-83
2021/12/20 08:15:07;;;;;;;31.70;11.33;;;3.70;99.90;;;;;;5094680;28;20072;-83
2021/12/20 08:17:32;;;;;;;28.27;11.13;;;3.70;99.90;;;;;;5095336;28;20119;-83
2021/12/20 08:19:58;;;;;;;31.50;10.83;;;3.80;99.90;;;;;;5094793;28;20106;-82
2021/12/20 08:22:25;;;;;;;26.87;10.67;;;3.80;99.90;;;;;;5112187;28;20024;-81
2021/12/20 08:24:51;;;;;;;29.67;11.73;;;3.80;99.90;;;;;;5095196;28;20031;-83
2021/12/20 08:27:17;;;;;;;29.47;11.43;;;3.90;99.90;;;;;;5094807;28;20026;-82
2021/12/20 08:29:43;;;;;;;34.10;12.17;;;3.90;99.90;;;;;;5094735;28;20110;-83
2021/12/20 08:32:08;;;;;;;31.67;10.80;;;3.80;99.90;;;;;;5112735;28;20024;-83
2021/12/20 08:34:34;;;;;;;31.27;11.13;;;3.90;99.90;;;;;;5092385;28;20031;-83
2021/12/20 08:37:03;;;;;;;32.10;11.57;;;3.90;99.90;;;;;;5113143;28;20019;-83
2021/12/20 08:39:30;;;;;;;28.67;10.60;;;3.90;99.90;;;;;;5099410;28;20019;-84
2021/12/20 08:41:57;;;;;;;28.50;10.93;;;3.90;99.90;;;;;;5099365;28;20040;-83
2021/12/20 08:44:23;;;;;;;33.03;11.97;;;4.00;99.90;;;;;;5098505;28;20028;-82
2021/12/20 08:46:50;;;;;;;32.27;12.07;;;4.00;99.90;;;;;;5098896;28;20030;-82
2021/12/20 08:49:16;;;;;;;37.40;12.67;;;4.00;99.90;;;;;;5098752;28;20031;-83
2021/12/20 08:51:42;;;;;;;29.03;11.80;;;4.00;99.90;;;;;;5098245;28;20036;-83
2021/12/20 08:54:08;;;;;;;30.27;11.33;;;4.10;99.90;;;;;;5098894;28;20023;-82
2021/12/20 08:56:34;;;;;;;27.33;11.63;;;4.10;99.90;;;;;;5099173;28;20104;-82
2021/12/20 08:59:00;;;;;;;35.07;12.23;;;4.10;99.90;;;;;;5098616;28;20165;-83
2021/12/20 09:01:26;;;;;;;33.93;11.70;;;4.10;99.90;;;;;;5099750;28;20119;-83
2021/12/20 09:03:52;;;;;;;30.97;11.00;;;4.10;99.90;;;;;;5099901;28;20031;-81
2021/12/20 09:06:22;;;;;;;33.53;11.33;;;4.10;99.90;;;;;;5095926;28;20082;-83
2021/12/20 09:08:47;;;;;;;34.50;12.50;;;4.20;99.90;;;;;;5098993;28;20460;-82
2021/12/20 09:11:13;;;;;;;29.70;10.63;;;4.20;99.90;;;;;;5099596;28;20035;-83
2021/12/20 09:13:41;;;;;;;31.47;11.43;;;4.20;99.90;;;;;;5116724;28;20027;-83
2021/12/20 09:16:06;;;;;;;28.33;11.53;;;4.20;99.90;;;;;;5098726;28;20509;-82
2021/12/20 09:18:32;;;;;;;33.20;12.00;;;4.30;99.90;;;;;;5116971;28;20024;-83
2021/12/20 09:20:58;;;;;;;31.70;12.20;;;4.30;99.90;;;;;;5098427;28;20503;-83
2021/12/20 09:23:28;;;;;;;35.27;12.20;;;4.30;99.90;;;;;;5098767;28;20396;-85
2021/12/20 09:25:54;;;;;;;38.73;12.80;;;4.30;99.90;;;;;;5117664;28;20122;-90
2021/12/20 09:28:20;;;;;;;37.10;12.93;;;4.30;99.90;;;;;;5098918;28;20163;-89
2021/12/20 09:30:47;;;;;;;32.23;12.20;;;4.30;99.90;;;;;;5099693;28;20027;-85
2021/12/20 09:33:14;;;;;;;29.93;12.00;;;4.30;99.90;;;;;;5090996;28;20495;-81
2021/12/20 09:35:41;;;;;;;33.17;11.97;;;4.30;99.90;;;;;;5098652;28;20034;-82
2021/12/20 09:38:10;;;;;;;30.00;12.07;;;4.40;99.90;;;;;;5098718;28;20126;-82
2021/12/20 09:40:39;;;;;;;33.53;12.20;;;4.50;99.90;;;;;;5098946;28;20028;-82
2021/12/20 09:43:09;;;;;;;35.20;11.60;;;4.50;99.90;;;;;;5098004;28;20034;-82
2021/12/20 09:45:36;;;;;;;32.90;11.93;;;4.60;99.90;;;;;;5098431;28;20073;-82
2021/12/20 09:48:01;;;;;;;32.33;11.20;;;4.60;99.90;;;;;;5097429;28;20020;-83
2021/12/20 09:50:27;;;;;;;31.90;12.10;;;4.70;99.90;;;;;;5097267;28;20533;-83
2021/12/20 09:52:53;;;;;;;32.13;12.07;;;4.70;99.90;;;;;;5098700;28;20476;-83
2021/12/20 09:55:19;;;;;;;32.73;11.70;;;4.70;99.90;;;;;;5097961;28;20024;-83
2021/12/20 09:57:47;;;;;;;37.10;12.63;;;4.80;99.90;;;;;;5097423;28;20055;-83
2021/12/20 10:00:16;;;;;;;30.60;12.03;;;4.80;99.90;;;;;;5098078;28;20031;-81
2021/12/20 10:02:45;;;;;;;36.97;11.83;;;4.90;99.90;;;;;;5098178;28;20028;-83
2021/12/20 10:05:12;;;;;;;28.77;11.20;;;4.90;99.90;;;;;;5115192;28;20528;-81
2021/12/20 10:07:39;;;;;;;32.27;12.00;;;4.90;99.90;;;;;;5097619;28;20023;-82
2021/12/20 10:10:06;;;;;;;28.83;11.63;;;5.00;99.90;;;;;;5115720;28;20531;-82
2021/12/20 10:12:32;;;;;;;36.90;12.37;;;5.00;99.90;;;;;;5097881;28;20062;-82
2021/12/20 10:15:03;;;;;;;32.47;11.80;;;5.10;99.90;;;;;;5098250;28;20073;-82
2021/12/20 10:17:31;;;;;;;30.98;11.77;;;5.10;99.90;;;;;;5095735;28;20023;-82
2021/12/20 10:20:13;;;;;;;27.87;11.03;;;5.20;99.90;;;;;;5097357;28;20069;-81
2021/12/20 10:22:39;;;;;;;39.70;13.88;;;5.10;99.90;;;;;;5116021;28;20027;-82
2021/12/20 10:25:37;;;;;;;31.67;12.13;;;5.20;99.90;;;;;;5097997;28;20032;-82
2021/12/20 10:28:11;;;;;;;33.43;12.47;;;5.30;99.90;;;;;;5096771;28;20027;-83
2021/12/20 10:30:43;;;;;;;32.83;12.83;;;5.30;99.90;;;;;;5091679;28;20026;-81
2021/12/20 10:33:13;;;;;;;32.77;11.77;;;5.40;99.90;;;;;;5090976;28;20038;-82
2021/12/20 10:35:43;;;;;;;34.73;11.77;;;5.40;99.90;;;;;;5096516;28;20027;-81
2021/12/20 10:38:30;;;;;;;35.30;12.53;;;5.40;99.90;;;;;;5097120;28;20482;-82
2021/12/20 10:41:03;;;;;;;34.83;12.53;;;5.50;99.90;;;;;;5096875;28;20391;-81
2021/12/20 10:43:37;;;;;;;35.50;12.37;;;5.50;99.90;;;;;;5097292;28;20031;-81
2021/12/20 10:46:31;;;;;;;36.63;12.67;;;5.50;99.90;;;;;;5097608;28;20077;-82
2021/12/20 10:49:06;;;;;;;41.50;13.17;;;5.60;99.90;;;;;;5094179;28;20036;-81
2021/12/20 10:51:41;;;;;;;38.13;13.50;;;5.50;99.90;;;;;;5097263;28;20039;-81
2021/12/20 10:54:11;;;;;;;39.83;14.57;;;5.60;99.90;;;;;;5097362;28;20027;-81
2021/12/20 10:56:39;;;;;;;37.83;12.77;;;5.60;99.90;;;;;;5097399;28;20051;-81
2021/12/20 10:59:09;;;;;;;33.47;13.17;;;5.60;99.90;;;;;;5097162;28;20059;-82
2021/12/20 11:04:08;;;;;;;35.47;12.97;;;5.70;99.90;;;;;;5111338;28;20027;-82
2021/12/20 11:09:18;;;;;;;37.25;12.95;;;5.70;99.90;;;;;;5114888;28;20031;-81
2021/12/20 11:11:52;;;;;;;35.17;12.27;;;5.70;99.90;;;;;;5096333;28;20088;-81
2021/12/20 11:14:20;;;;;;;32.90;12.30;;;5.80;99.90;;;;;;5096997;28;20027;-81
2021/12/20 11:16:49;;;;;;;36.43;14.10;;;5.80;99.90;;;;;;5083685;28;20024;-81
2021/12/20 11:19:23;;;;;;;38.20;13.67;;;5.80;99.90;;;;;;5093926;28;20032;-81
2021/12/20 11:21:58;;;;;;;35.77;12.57;;;5.90;99.90;;;;;;5075829;28;20551;-81
2021/12/20 11:24:46;;;;;;;37.70;12.80;;;5.90;99.90;;;;;;5100011;28;20377;-81
2021/12/20 11:27:17;;;;;;;36.03;12.47;;;6.00;99.90;;;;;;5096126;28;20070;-81
2021/12/20 11:29:46;;;;;;;35.90;12.97;;;6.00;99.90;;;;;;5114629;28;20055;-81
2021/12/20 11:32:13;;;;;;;37.17;12.77;;;6.00;99.90;;;;;;5080096;28;20280;-81
2021/12/20 11:34:41;;;;;;;32.20;12.43;;;5.90;99.90;;;;;;5095177;28;20038;-81
2021/12/20 11:37:08;;;;;;;35.27;12.67;;;5.90;99.90;;;;;;5096281;28;20118;-82
2021/12/20 11:39:34;;;;;;;39.27;12.77;;;5.90;99.90;;;;;;5088263;28;20123;-81
2021/12/20 11:42:00;;;;;;;31.30;12.27;;;5.90;99.90;;;;;;5075438;28;20096;-81
2021/12/20 11:44:28;;;;;;;32.73;11.97;;;5.90;99.90;;;;;;5093939;28;20020;-81
2021/12/20 11:47:06;;;;;;;29.83;11.03;;;6.00;99.90;;;;;;5093883;28;20028;-81
2021/12/20 11:49:32;;;;;;;30.03;11.67;;;6.10;99.90;;;;;;5076320;28;20028;-81
2021/12/20 11:52:00;;;;;;;31.73;11.73;;;6.10;99.90;;;;;;5075319;28;20036;-83
2021/12/20 11:54:39;;;;;;;27.70;10.90;;;6.10;99.90;;;;;;5088082;28;20058;-82
2021/12/20 11:57:06;;;;;;;25.00;9.57;;;6.10;99.90;;;;;;5092623;28;20047;-83
2021/12/20 11:59:49;;;;;;;21.80;9.70;;;6.20;99.90;;;;;;5094791;28;20047;-81
2021/12/20 12:02:19;;;;;;;22.23;9.27;;;6.30;99.90;;;;;;5095614;28;20027;-81
2021/12/20 12:04:54;;;;;;;23.83;9.23;;;6.30;99.90;;;;;;5095336;28;20118;-81
2021/12/20 12:07:29;;;;;;;22.67;9.37;;;6.30;99.90;;;;;;5094530;28;20552;-81
2021/12/20 12:10:06;;;;;;;21.20;8.43;;;6.30;99.90;;;;;;5096944;28;20480;-80
2021/12/20 12:12:35;;;;;;;19.80;8.33;;;6.30;99.90;;;;;;5095278;28;20556;-82
2021/12/20 12:15:08;;;;;;;21.13;8.90;;;6.30;99.90;;;;;;5113423;28;20020;-81
2021/12/20 12:17:52;;;;;;;22.20;8.90;;;6.30;99.90;;;;;;5081804;28;20043;-82
2021/12/20 12:20:44;;;;;;;18.23;8.77;;;6.30;99.90;;;;;;5092742;28;20537;-81
2021/12/20 12:23:12;;;;;;;24.47;8.90;;;6.50;99.90;;;;;;5076542;28;20475;-81
2021/12/20 12:25:44;;;;;;;18.57;8.43;;;6.50;99.90;;;;;;5074906;28;20024;-82
2021/12/20 12:28:12;;;;;;;22.30;9.17;;;6.50;99.90;;;;;;5077628;28;20032;-81
2021/12/20 12:30:39;;;;;;;21.47;8.57;;;6.40;99.90;;;;;;5113316;28;20024;-81
2021/12/20 12:33:04;;;;;;;17.50;7.67;;;6.40;99.90;;;;;;5089516;28;20028;-82
2021/12/20 12:35:39;;;;;;;22.67;8.23;;;6.30;99.90;;;;;;5113357;28;20099;-81
2021/12/20 12:38:16;;;;;;;19.30;8.10;;;6.30;99.90;;;;;;5095423;28;20055;-81
2021/12/20 12:40:42;;;;;;;17.77;7.97;;;6.30;99.90;;;;;;5095397;28;20027;-82
2021/12/20 12:43:09;;;;;;;20.20;7.90;;;6.30;99.90;;;;;;5094826;28;20495;-82
2021/12/20 12:45:58;;;;;;;20.40;7.83;;;6.20;99.90;;;;;;5095544;28;20080;-83
2021/12/20 12:48:33;;;;;;;21.67;7.87;;;6.30;99.90;;;;;;5094641;28;20142;-83
2021/12/20 12:51:17;;;;;;;17.50;7.60;;;6.50;99.90;;;;;;5113517;28;20023;-82
2021/12/20 12:53:48;;;;;;;17.60;7.10;;;6.60;99.90;;;;;;5113487;28;20073;-82
2021/12/20 12:56:23;;;;;;;16.60;7.53;;;6.70;99.90;;;;;;5112173;28;20408;-83
2021/12/20 12:59:11;;;;;;;13.93;6.67;;;6.70;99.90;;;;;;5095866;28;20433;-83